Detall de PIREP

Printer-friendly versionPDF version

[2013/07/06 16:19:00]
Flight IATA:CT0001
Pilot Number:012
Company ICAO:CAT
Aircraft Type:C172/A
PAX:1
Departing Airport: LEGE
Destination Airport: LELL
Alternate Airport:LEDA
Online: VATSIM
Route:VFR
Flight Level:A3000
No Slew and time accel
No pause
Crash detect
Detect pilot in Cockpit between each 30 and 45 minutes
16:19 Zero fuel Weight: 1832 Lbs, Fuel Weight: 317 Lbs
16:19 VATSIM:LEGE 061600Z 20009KT 150V230 CAVOK 29/14 Q1021
16:19 VATSIM:LELL 061600Z 10009KT 060V140 CAVOK 28/16 Q1021
16:19 VOICE CATALONIAN
16:21 Parking Brakes off
16:25 Take-off
16:25 Take off Weight: 2148 Lbs
16:25 Wind: 178º @ 009 Knots Heading: 191º
16:25 POS N41º 54´ 13´´ E002º 45´ 42´´
16:40 Wind:174º@008 Knots Heading: 223º Ground Speed: 108 Knots Altitude 2998 ft
16:55 Wind:103º@009 Knots Heading: 305º Ground Speed: 105 Knots Altitude 1519 ft
16:55 Flaps:1 at 83 Knots
16:57 Flaps:2 at 78 Knots
16:57 Flaps:3 at 67 Knots
16:59 TouchDown:Rate -183 ft/min Speed: 57 Knots
16:59 Flaps:2 at 48 Knots
16:59 Flaps:0 at 46 Knots
16:59 VATSIM:LELL 061630Z 12008KT 070V150 CAVOK 28/18 Q1021
16:59 Land
16:59 Wind:096º@009 Knots
16:59 Heading: 164º
16:59 Flight Duration: 00:34
16:59 Landing Weight: 2121 Lbs
16:59 POS N41º 31´ 12´´ E002º 06´ 23´´
17:00 Parking brakes on
17:00 Block to Block Duration: 00:39
17:00 Final Fuel: 288 Lbls
17:00 Spent Fuel: 28 Lbls
17:00 Flight Length: 57 NM
17:00 TOD Land Length: 57 NM

Exportar CSV

Powered by Drupal - Modified by Danger4k